RMF weather

Marsa Alam International Airport
Marsa Alam, Red Sea Governorate, Egypt

Public forecast

Using degrees Celsius for public forecast. Weather courtesy of forecast.io.

METAR (pilot weather report)

Retrieved 2019/04/21 15:00 UTC (43 minutes ago):

HEMA 211500Z 35021KT CAVOK 23/08 Q1013 NOSIG

TAF (pilot weather forecast)

Retrieved 2019/04/21 12:57 UTC (3 hours ago):

TAF TAF HEMA 211100Z 2112/2218 36015G25KT 8000 NSC